Time;durP1;ratioP1;P1;durP2;ratioP2;P2;SDS_P1;SDS_P2;PMS_P1;PMS_P2;Temp;Humidity;BMP_temperature;BMP_pressure;BME280_temperature;BME280_humidity;BME280_pressure;Samples;Min_cycle;Max_cycle;Signal;HPM_P1;HPM_P2
2021/10/14 00:01:46;;;;;;;35.30;17.48;;;;;;;11.02;71.94;99504.34;5053510;28;20029;-57
2021/10/14 00:04:15;;;;;;;30.45;17.20;;;;;;;11.22;72.28;99529.38;5052508;28;20029;-56
2021/10/14 00:06:43;;;;;;;25.48;16.48;;;;;;;11.16;72.45;99514.69;5052537;28;20036;-51
2021/10/14 00:09:08;;;;;;;30.75;18.27;;;;;;;11.18;71.59;99512.69;5052887;28;20465;-57
2021/10/14 00:11:34;;;;;;;31.13;17.88;;;;;;;11.18;71.61;99511.88;5051233;28;20048;-54
2021/10/14 00:13:59;;;;;;;35.17;18.30;;;;;;;11.18;71.92;99515.38;5052839;28;20036;-58
2021/10/14 00:16:25;;;;;;;27.63;16.63;;;;;;;11.15;72.15;99518.34;5052857;28;20102;-54
2021/10/14 00:18:50;;;;;;;34.63;17.15;;;;;;;11.19;72.05;99521.59;5052729;28;20552;-61
2021/10/14 00:21:16;;;;;;;31.00;16.95;;;;;;;10.98;72.42;99476.13;5052832;28;20542;-58
2021/10/14 00:23:41;;;;;;;33.20;16.95;;;;;;;11.20;71.98;99518.78;5034124;28;20061;-58
2021/10/14 00:26:07;;;;;;;26.90;17.27;;;;;;;11.22;71.95;99520.50;5052533;28;20037;-58
2021/10/14 00:28:33;;;;;;;23.83;16.50;;;;;;;11.23;72.26;99522.19;5052383;28;20071;-59
2021/10/14 00:30:58;;;;;;;32.42;18.33;;;;;;;11.25;71.34;99513.03;5051993;28;20033;-56
2021/10/14 00:33:24;;;;;;;27.27;17.30;;;;;;;11.19;71.52;99508.22;5051058;28;20366;-59
2021/10/14 00:35:49;;;;;;;34.95;19.52;;;;;;;11.12;70.21;99483.78;5051892;28;20025;-56
2021/10/14 00:38:15;;;;;;;33.25;19.65;;;;;;;11.19;71.36;99518.94;5052311;28;20056;-57
2021/10/14 00:40:43;;;;;;;34.78;19.90;;;;;;;11.16;71.15;99517.34;5050114;28;20102;-56
2021/10/14 00:43:09;;;;;;;33.28;20.70;;;;;;;11.13;71.10;99511.44;5031892;28;20033;-56
2021/10/14 00:45:34;;;;;;;35.05;21.33;;;;;;;11.08;71.40;99508.28;5032052;28;20026;-57
2021/10/14 00:48:00;;;;;;;35.22;22.20;;;;;;;11.18;70.62;99506.50;5031872;28;20037;-56
2021/10/14 00:50:25;;;;;;;38.85;22.08;;;;;;;11.08;71.00;99505.63;5030529;28;20408;-57
2021/10/14 00:52:52;;;;;;;35.42;21.23;;;;;;;11.09;70.69;99504.63;5032073;28;20032;-56
2021/10/14 00:55:19;;;;;;;41.83;24.05;;;;;;;11.16;70.11;99495.91;5032731;28;20061;-58
2021/10/14 00:57:45;;;;;;;32.50;22.92;;;;;;;10.95;71.08;99485.28;5030804;28;20036;-56
2021/10/14 01:00:11;;;;;;;38.60;22.45;;;;;;;10.91;70.94;99470.47;5031807;28;20115;-58
2021/10/14 01:02:36;;;;;;;38.58;23.45;;;;;;;10.97;70.58;99480.63;5031616;28;20030;-59
2021/10/14 01:05:03;;;;;;;36.70;22.92;;;;;;;10.74;71.67;99451.34;5032246;28;20075;-60
2021/10/14 01:07:29;;;;;;;34.85;22.83;;;;;;;10.85;72.12;99465.63;5031738;28;20040;-56
2021/10/14 01:09:55;;;;;;;40.05;22.48;;;;;;;10.85;72.22;99470.97;5031306;28;20033;-57
2021/10/14 01:12:22;;;;;;;33.53;21.58;;;;;;;10.85;71.91;99462.94;5029947;28;20136;-56
2021/10/14 01:14:47;;;;;;;37.75;22.05;;;;;;;10.84;72.36;99464.78;5029905;28;20119;-57
2021/10/14 01:17:13;;;;;;;36.60;22.27;;;;;;;10.85;71.96;99465.63;5029558;28;20064;-57
2021/10/14 01:19:43;;;;;;;32.35;22.42;;;;;;;10.73;72.11;99441.63;5030784;28;20147;-54
2021/10/14 01:22:10;;;;;;;37.58;22.02;;;;;;;10.85;72.21;99476.34;5030433;28;20025;-59
2021/10/14 01:24:36;;;;;;;38.00;22.38;;;;;;;10.85;71.89;99473.66;5030787;28;20035;-55
2021/10/14 01:27:06;;;;;;;35.05;21.35;;;;;;;10.86;72.21;99475.38;5030353;28;20107;-55
2021/10/14 01:29:33;;;;;;;33.78;21.70;;;;;;;10.86;71.37;99481.56;5030341;28;20057;-58
2021/10/14 01:32:00;;;;;;;35.80;21.02;;;;;;;10.77;71.58;99474.34;5029263;28;20029;-58
2021/10/14 01:34:25;;;;;;;38.10;21.40;;;;;;;10.80;72.07;99474.09;5030164;28;20029;-57
2021/10/14 01:36:51;;;;;;;34.05;21.58;;;;;;;10.79;72.21;99477.75;5030795;28;20523;-58
2021/10/14 01:39:16;;;;;;;35.97;21.95;;;;;;;10.75;72.13;99466.44;5030368;28;20026;-57
2021/10/14 01:41:46;;;;;;;32.67;21.23;;;;;;;10.75;72.13;99482.50;5030333;28;20032;-57
2021/10/14 01:44:12;;;;;;;35.85;20.58;;;;;;;10.73;72.01;99473.75;5030344;28;20030;-56
2021/10/14 01:46:38;;;;;;;35.58;22.42;;;;;;;10.77;71.07;99472.50;5029976;28;20120;-58
2021/10/14 01:49:03;;;;;;;34.67;21.40;;;;;;;10.72;70.51;99444.44;5029335;28;20072;-55
2021/10/14 01:51:29;;;;;;;36.25;22.55;;;;;;;10.74;70.79;99474.63;5030224;28;20033;-61
2021/10/14 01:53:54;;;;;;;36.88;22.05;;;;;;;10.66;70.98;99459.22;5030084;28;20034;-56
2021/10/14 01:56:20;;;;;;;35.17;21.30;;;;;;;10.81;70.57;99472.22;5029294;28;20537;-59
2021/10/14 01:58:45;;;;;;;32.22;19.25;;;;;;;10.62;71.32;99476.53;5028745;28;20040;-59
2021/10/14 02:01:11;;;;;;;32.17;20.40;;;;;;;10.51;71.56;99472.09;5028143;28;20052;-55
2021/10/14 02:03:36;;;;;;;29.75;20.08;;;;;;;10.46;71.85;99455.56;5030342;28;20022;-58
2021/10/14 02:06:02;;;;;;;31.13;19.48;;;;;;;10.51;71.76;99473.94;5029945;28;20107;-58
2021/10/14 02:08:27;;;;;;;32.60;19.45;;;;;;;10.51;71.99;99473.94;5029934;28;20140;-59
2021/10/14 02:10:53;;;;;;;28.90;19.27;;;;;;;10.53;71.87;99482.66;4990570;28;1132231;-56
2021/10/14 02:13:18;;;;;;;30.02;19.45;;;;;;;10.43;70.92;99440.66;5031121;28;20041;-60
2021/10/14 02:15:44;;;;;;;29.95;18.55;;;;;;;10.68;69.63;99467.97;5030670;28;20029;-59
2021/10/14 02:18:09;;;;;;;34.50;19.38;;;;;;;10.69;70.41;99483.03;5030660;28;20444;-57
2021/10/14 02:20:35;;;;;;;28.52;19.08;;;;;;;10.66;70.86;99471.75;5030799;28;20104;-56
2021/10/14 02:23:00;;;;;;;27.83;17.58;;;;;;;10.68;70.54;99480.50;5029455;28;20124;-59
2021/10/14 02:25:27;;;;;;;31.55;18.88;;;;;;;10.68;70.12;99469.78;5030826;28;20099;-58
2021/10/14 02:27:52;;;;;;;28.48;18.10;;;;;;;10.62;71.09;99468.50;5012638;28;20087;-60
2021/10/14 02:30:18;;;;;;;28.02;18.25;;;;;;;10.70;70.17;99468.69;5031107;28;20041;-56
2021/10/14 02:32:43;;;;;;;31.75;18.25;;;;;;;10.65;70.57;99468.25;5030680;28;20029;-60
2021/10/14 02:35:09;;;;;;;26.25;17.20;;;;;;;10.59;71.01;99461.59;5030318;28;20136;-57
2021/10/14 02:37:35;;;;;;;26.25;17.25;;;;;;;10.65;71.07;99462.88;5028961;28;20432;-58
2021/10/14 02:40:00;;;;;;;30.42;18.58;;;;;;;10.63;70.71;99468.34;5031005;28;20036;-59
2021/10/14 02:42:26;;;;;;;32.05;18.85;;;;;;;10.71;70.43;99456.13;5030966;28;20380;-58
2021/10/14 02:44:51;;;;;;;30.33;18.90;;;;;;;10.64;71.00;99447.81;5028994;28;20428;-58
2021/10/14 02:47:17;;;;;;;26.02;17.90;;;;;;;10.63;70.93;99456.81;5030097;28;20044;-59
2021/10/14 02:49:43;;;;;;;28.15;17.30;;;;;;;10.65;70.72;99454.84;5030387;28;20034;-60
2021/10/14 02:52:08;;;;;;;23.25;17.08;;;;;;;10.67;70.61;99450.22;5030941;28;20079;-57
2021/10/14 02:54:34;;;;;;;26.58;17.35;;;;;;;10.69;71.16;99450.06;5030275;28;20033;-58
2021/10/14 02:56:59;;;;;;;27.75;17.85;;;;;;;10.73;70.27;99452.34;5030274;28;20033;-61
2021/10/14 02:59:25;;;;;;;28.35;17.55;;;;;;;10.61;70.62;99443.56;5030944;28;20030;-59
2021/10/14 03:01:51;;;;;;;26.25;17.27;;;;;;;10.58;70.04;99437.59;5030965;28;20036;-57
2021/10/14 03:04:16;;;;;;;28.77;17.05;;;;;;;10.65;70.29;99460.22;5029743;28;20484;-58
2021/10/14 03:06:42;;;;;;;25.73;16.88;;;;;;;10.70;70.23;99446.41;5030670;28;20049;-57
2021/10/14 03:09:07;;;;;;;27.63;16.30;;;;;;;10.77;69.74;99453.75;5034241;28;20030;-59
2021/10/14 03:11:33;;;;;;;31.00;17.98;;;;;;;10.76;69.51;99448.56;5033184;28;20137;-59
2021/10/14 03:13:58;;;;;;;30.08;16.35;;;;;;;10.72;69.47;99444.44;5033560;28;20068;-58
2021/10/14 03:16:24;;;;;;;25.77;16.25;;;;;;;10.63;69.45;99440.75;5033913;28;20048;-60
2021/10/14 03:18:49;;;;;;;27.80;15.43;;;;;;;10.59;70.16;99442.84;5034042;28;20021;-60
2021/10/14 03:21:16;;;;;;;28.50;18.25;;;;;;;10.62;69.24;99429.19;5033922;28;20049;-59
2021/10/14 03:23:41;;;;;;;25.95;17.00;;;;;;;10.53;69.73;99434.50;5033555;28;20021;-57
2021/10/14 03:26:07;;;;;;;31.65;16.65;;;;;;;10.47;70.21;99426.03;5033131;28;20480;-58
2021/10/14 03:28:32;;;;;;;23.10;15.43;;;;;;;10.40;70.45;99418.63;5033192;28;20025;-61
2021/10/14 03:30:58;;;;;;;27.73;16.30;;;;;;;10.43;69.84;99408.53;5033012;28;20083;-59
2021/10/14 03:33:23;;;;;;;24.00;15.85;;;;;;;10.40;69.22;99392.75;5031821;28;20041;-59
2021/10/14 03:35:49;;;;;;;28.42;16.38;;;;;;;10.55;69.17;99411.97;5032899;28;20037;-57
2021/10/14 03:38:14;;;;;;;30.08;16.38;;;;;;;10.53;69.22;99411.25;5033245;28;20087;-60
2021/10/14 03:40:40;;;;;;;26.17;16.75;;;;;;;10.20;69.81;99371.22;5031725;28;20029;-58
2021/10/14 03:43:05;;;;;;;25.88;15.27;;;;;;;10.43;69.53;99405.00;5032007;28;20132;-59
2021/10/14 03:45:31;;;;;;;27.38;16.10;;;;;;;10.43;69.50;99405.84;5033639;28;20048;-59
2021/10/14 03:47:56;;;;;;;26.70;16.38;;;;;;;10.45;69.46;99406.56;5032862;28;20068;-59
2021/10/14 03:50:22;;;;;;;32.42;17.15;;;;;;;10.37;69.93;99409.03;5032769;28;20061;-61
2021/10/14 03:52:48;;;;;;;26.00;15.85;;;;;;;10.29;70.15;99412.38;5033374;28;20084;-59
2021/10/14 03:55:13;;;;;;;31.63;15.77;;;;;;;10.18;70.71;99404.41;5032912;28;20034;-61
2021/10/14 03:57:39;;;;;;;27.10;16.85;;;;;;;10.12;71.15;99400.44;5032945;28;20030;-60
2021/10/14 04:00:06;;;;;;;23.15;15.57;;;;;;;10.11;71.42;99395.22;5031952;28;20072;-59
2021/10/14 04:02:34;;;;;;;30.75;16.58;;;;;;;10.10;71.56;99386.34;5032849;28;20033;-57
2021/10/14 04:05:01;;;;;;;29.70;16.30;;;;;;;10.14;71.07;99386.94;5032666;28;20033;-60
2021/10/14 04:07:26;;;;;;;25.85;14.82;;;;;;;10.13;71.46;99391.44;5032768;28;20052;-60
2021/10/14 04:09:52;;;;;;;25.67;15.15;;;;;;;10.12;71.33;99380.88;5032857;28;20469;-59
2021/10/14 04:12:17;;;;;;;28.13;14.70;;;;;;;10.22;71.35;99389.78;5032937;28;20049;-59
2021/10/14 04:14:43;;;;;;;27.02;14.80;;;;;;;10.31;70.65;99393.50;5032954;28;20045;-58
2021/10/14 04:17:08;;;;;;;25.20;13.90;;;;;;;10.38;69.81;99394.69;5033205;28;20499;-57
2021/10/14 04:19:34;;;;;;;27.55;14.98;;;;;;;10.42;69.08;99380.06;5032050;28;20029;-59
2021/10/14 04:21:59;;;;;;;26.48;14.63;;;;;;;10.46;68.34;99377.97;5031546;28;20434;-61
2021/10/14 04:24:28;;;;;;;22.88;13.80;;;;;;;10.53;68.10;99365.75;5032602;28;20033;-59
2021/10/14 04:26:54;;;;;;;22.77;12.95;;;;;;;10.53;67.89;99365.75;5032329;28;20079;-54
2021/10/14 04:29:19;;;;;;;28.25;13.57;;;;;;;10.54;67.23;99355.88;5032022;28;20033;-59
2021/10/14 04:31:45;;;;;;;18.48;12.48;;;;;;;10.50;67.18;99354.47;5031948;28;20056;-59
2021/10/14 04:34:10;;;;;;;25.35;13.18;;;;;;;10.55;66.31;99358.44;5032096;28;20025;-59
2021/10/14 04:36:37;;;;;;;25.88;14.05;;;;;;;10.48;66.83;99344.75;5032602;28;20021;-55
2021/10/14 04:39:03;;;;;;;22.55;12.15;;;;;;;10.46;67.37;99338.69;5032455;28;20087;-58
2021/10/14 04:41:29;;;;;;;23.65;13.20;;;;;;;10.52;66.89;99328.41;5031745;28;20041;-58
2021/10/14 04:43:54;;;;;;;21.30;13.07;;;;;;;10.52;67.42;99334.63;5032291;28;20472;-61
2021/10/14 04:46:20;;;;;;;25.83;13.07;;;;;;;10.30;68.23;99288.31;5032370;28;20128;-58
2021/10/14 04:48:46;;;;;;;27.38;14.40;;;;;;;10.58;68.36;99319.81;5030393;28;20040;-55
2021/10/14 04:51:11;;;;;;;20.85;14.00;;;;;;;10.52;68.26;99305.19;5031663;28;20041;-55
2021/10/14 04:53:37;;;;;;;29.33;14.60;;;;;;;10.62;67.02;99308.72;5032084;28;20030;-57
2021/10/14 04:56:03;;;;;;;24.80;14.50;;;;;;;10.64;67.00;99319.28;5032431;28;20063;-57
2021/10/14 04:58:30;;;;;;;31.15;14.82;;;;;;;10.69;67.06;99322.41;5032110;28;20117;-58
2021/10/14 05:00:55;;;;;;;24.88;14.77;;;;;;;10.61;67.21;99320.41;5031526;28;20034;-59
2021/10/14 05:03:21;;;;;;;28.60;13.25;;;;;;;10.55;66.68;99320.97;5031620;28;20025;-60
2021/10/14 05:05:46;;;;;;;27.83;14.68;;;;;;;10.59;66.67;99319.69;5032087;28;20028;-59
2021/10/14 05:08:12;;;;;;;21.90;10.98;;;;;;;10.62;65.98;99316.75;5031056;28;20099;-58
2021/10/14 05:10:38;;;;;;;24.80;13.38;;;;;;;10.60;65.06;99312.50;5031469;28;20065;-57
2021/10/14 05:13:03;;;;;;;18.55;12.52;;;;;;;10.62;64.09;99307.88;5031464;28;20081;-57
2021/10/14 05:15:29;;;;;;;21.35;11.60;;;;;;;10.54;64.91;99311.25;5031337;28;20552;-58
2021/10/14 05:17:54;;;;;;;24.13;11.93;;;;;;;10.50;64.76;99301.78;5030124;28;20107;-61
2021/10/14 05:20:19;;;;;;;22.88;11.38;;;;;;;10.65;62.85;99315.63;5031301;28;20029;-59
2021/10/14 05:22:45;;;;;;;28.20;11.90;;;;;;;10.60;63.46;99321.38;5031091;28;20032;-62
2021/10/14 05:25:10;;;;;;;25.08;10.85;;;;;;;10.65;62.14;99323.66;5043089;28;20029;-60
2021/10/14 05:27:36;;;;;;;23.00;12.05;;;;;;;10.46;61.85;99290.50;5036814;28;20029;-61
2021/10/14 05:30:02;;;;;;;23.67;10.55;;;;;;;10.60;62.41;99328.56;5030938;28;20035;-60
2021/10/14 05:32:28;;;;;;;22.63;10.07;;;;;;;10.70;61.71;99325.91;5030960;28;20144;-60
2021/10/14 05:34:54;;;;;;;19.77;9.77;;;;;;;10.66;61.92;99311.97;5033786;28;20526;-59
2021/10/14 05:37:19;;;;;;;17.52;10.32;;;;;;;10.74;61.21;99312.13;5031002;28;20096;-61
2021/10/14 05:39:45;;;;;;;22.35;10.77;;;;;;;10.59;61.54;99282.22;5031065;28;20029;-61
2021/10/14 05:42:10;;;;;;;17.00;9.90;;;;;;;10.71;60.89;99307.03;5030033;28;20037;-62
2021/10/14 05:44:36;;;;;;;17.08;9.85;;;;;;;10.80;60.23;99301.84;5030140;28;20079;-61
2021/10/14 05:47:01;;;;;;;24.88;9.40;;;;;;;10.69;59.62;99268.84;5031546;28;20022;-60
2021/10/14 05:49:27;;;;;;;20.23;8.88;;;;;;;10.82;58.83;99275.75;5029875;28;20029;-58
2021/10/14 05:51:52;;;;;;;18.05;8.73;;;;;;;10.83;58.56;99280.13;5029454;28;20465;-59
2021/10/14 05:54:17;;;;;;;26.50;9.55;;;;;;;10.81;57.91;99284.78;5031130;28;20033;-63
2021/10/14 05:56:43;;;;;;;16.35;8.55;;;;;;;10.79;58.38;99290.31;5031184;28;20037;-62
2021/10/14 05:59:08;;;;;;;19.73;8.77;;;;;;;10.82;57.51;99281.97;5029806;28;20036;-63
2021/10/14 06:01:34;;;;;;;30.27;10.38;;;;;;;10.90;56.93;99281.28;5029373;28;20091;-61
2021/10/14 06:03:59;;;;;;;19.92;8.98;;;;;;;10.93;56.27;99281.00;5013469;28;20061;-64
2021/10/14 06:06:25;;;;;;;17.73;8.25;;;;;;;10.90;56.46;99283.97;5030797;28;20033;-62
2021/10/14 06:08:51;;;;;;;18.30;8.32;;;;;;;10.93;56.74;99283.69;5030796;28;20458;-63
2021/10/14 06:11:16;;;;;;;20.92;9.05;;;;;;;10.93;56.53;99298.91;5029809;28;20061;-63
2021/10/14 06:13:42;;;;;;;15.80;8.40;;;;;;;11.03;55.61;99299.78;5030974;28;20034;-62
2021/10/14 06:16:07;;;;;;;20.50;8.65;;;;;;;11.03;55.92;99297.09;5029086;28;20112;-62
2021/10/14 06:18:34;;;;;;;16.55;8.45;;;;;;;11.05;55.59;99293.25;5028983;28;20263;-63
2021/10/14 06:21:00;;;;;;;20.80;9.15;;;;;;;11.17;55.47;99306.53;5035473;28;20069;-62
2021/10/14 06:23:26;;;;;;;28.60;8.05;;;;;;;11.12;55.44;99290.06;5037016;28;20069;-63
2021/10/14 06:25:52;;;;;;;16.38;8.88;;;;;;;11.18;55.49;99290.31;5038387;28;20109;-62
2021/10/14 06:28:17;;;;;;;22.95;8.57;;;;;;;11.18;53.94;99268.03;5036758;28;20112;-62
2021/10/14 06:30:43;;;;;;;24.92;8.95;;;;;;;11.39;52.72;99283.13;5035408;28;20535;-62
2021/10/14 06:33:08;;;;;;;19.95;8.57;;;;;;;11.37;53.25;99277.06;5043253;28;20033;-63
2021/10/14 06:35:34;;;;;;;21.52;9.43;;;;;;;11.31;53.44;99268.59;5020402;28;20036;-62
2021/10/14 06:37:59;;;;;;;26.88;8.43;;;;;;;11.45;52.42;99283.41;5038822;28;20043;-62
2021/10/14 06:40:25;;;;;;;21.17;8.82;;;;;;;11.49;52.14;99275.91;5020834;28;20458;-63
2021/10/14 06:42:51;;;;;;;22.08;9.05;;;;;;;11.68;51.25;99284.91;5039480;28;20038;-65
2021/10/14 06:45:17;;;;;;;17.67;8.50;;;;;;;11.74;50.63;99285.19;5040807;28;20044;-63
2021/10/14 06:47:42;;;;;;;19.63;9.07;;;;;;;11.61;51.12;99274.78;5040273;28;20048;-63
2021/10/14 06:50:08;;;;;;;21.42;9.45;;;;;;;11.57;50.50;99267.97;5048968;28;20429;-61
2021/10/14 06:52:34;;;;;;;25.75;9.30;;;;;;;11.55;50.49;99275.31;5050928;28;20060;-62
2021/10/14 06:54:59;;;;;;;27.10;9.93;;;;;;;11.37;50.32;99239.53;5052230;28;20041;-63
2021/10/14 06:57:25;;;;;;;25.25;9.30;;;;;;;11.56;50.83;99271.66;5049560;28;20129;-64
2021/10/14 06:59:51;;;;;;;21.25;9.38;;;;;;;11.66;49.48;99286.88;5049004;28;20130;-64
2021/10/14 07:02:17;;;;;;;31.15;8.65;;;;;;;11.53;50.50;99273.78;5054103;28;20508;-63
2021/10/14 07:04:42;;;;;;;22.25;9.77;;;;;;;11.52;50.20;99272.94;5053656;28;20037;-62
2021/10/14 07:07:08;;;;;;;23.75;9.57;;;;;;;11.49;49.65;99275.91;5053855;28;20075;-63
2021/10/14 07:09:33;;;;;;;29.75;9.35;;;;;;;11.46;50.25;99270.84;5042781;28;20500;-64
2021/10/14 07:12:03;;;;;;;24.20;9.73;;;;;;;11.28;50.13;99236.72;5033877;28;20041;-63
2021/10/14 07:14:28;;;;;;;24.08;9.32;;;;;;;11.53;50.00;99276.47;5033616;28;20044;-61
2021/10/14 07:16:54;;;;;;;23.52;8.60;;;;;;;11.49;49.56;99273.22;5033517;28;20381;-63
2021/10/14 07:19:20;;;;;;;16.52;8.95;;;;;;;11.40;50.16;99282.97;5032399;28;20450;-64
2021/10/14 07:21:45;;;;;;;16.58;8.13;;;;;;;11.15;50.85;99263.81;5033626;28;20450;-63
2021/10/14 07:24:11;;;;;;;26.98;9.35;;;;;;;11.31;51.58;99284.66;5033657;28;20410;-63
2021/10/14 07:26:37;;;;;;;19.27;8.95;;;;;;;11.36;51.02;99286.94;5033202;28;20393;-63
2021/10/14 07:29:04;;;;;;;27.55;9.93;;;;;;;11.32;52.12;99296.25;5033543;28;20033;-61
2021/10/14 07:31:32;;;;;;;28.02;9.23;;;;;;;11.28;52.12;99298.34;5032147;28;20028;-64
2021/10/14 07:33:58;;;;;;;23.70;9.60;;;;;;;11.26;52.31;99284.25;5033596;28;20029;-62
2021/10/14 07:36:23;;;;;;;27.33;10.02;;;;;;;11.24;52.05;99283.53;5032648;28;20040;-63
2021/10/14 07:38:49;;;;;;;25.60;10.00;;;;;;;11.12;52.29;99277.47;5033441;28;20071;-63
2021/10/14 07:41:15;;;;;;;26.33;9.45;;;;;;;11.01;52.83;99275.78;5033421;28;20030;-63
2021/10/14 07:43:40;;;;;;;26.45;10.02;;;;;;;10.97;54.78;99279.75;5033598;28;20434;-63
2021/10/14 07:46:08;;;;;;;28.13;9.55;;;;;;;11.06;54.26;99281.56;5033173;28;20465;-62
2021/10/14 07:48:36;;;;;;;20.85;9.63;;;;;;;11.12;53.75;99290.06;5032926;28;20518;-61
2021/10/14 07:51:04;;;;;;;21.13;10.50;;;;;;;11.11;53.92;99299.06;5033907;28;20144;-63
2021/10/14 07:53:29;;;;;;;22.52;9.65;;;;;;;11.06;54.00;99294.13;5032876;28;20143;-62
2021/10/14 07:55:55;;;;;;;23.13;10.23;;;;;;;11.10;53.02;99289.34;5032932;28;20029;-62
2021/10/14 07:58:20;;;;;;;26.10;10.00;;;;;;;11.07;52.88;99290.47;5031823;28;20087;-63
2021/10/14 08:00:46;;;;;;;28.90;9.70;;;;;;;10.82;52.80;99260.56;5033503;28;20450;-63
2021/10/14 08:03:12;;;;;;;27.88;10.07;;;;;;;10.99;52.94;99295.69;5033068;28;20029;-61
2021/10/14 08:05:38;;;;;;;18.80;9.05;;;;;;;10.84;53.02;99276.47;5031529;28;20083;-62
2021/10/14 08:08:04;;;;;;;18.27;9.48;;;;;;;10.85;53.05;99294.22;5031401;28;20045;-62
2021/10/14 08:10:31;;;;;;;28.10;10.70;;;;;;;10.80;53.60;99293.81;5044782;28;20036;-62
2021/10/14 08:12:57;;;;;;;27.10;10.75;;;;;;;10.75;54.05;99287.03;5050561;28;20095;-63
2021/10/14 08:15:23;;;;;;;17.38;9.65;;;;;;;10.77;54.46;99287.75;5052662;28;20041;-62
2021/10/14 08:17:49;;;;;;;20.38;9.85;;;;;;;10.71;54.60;99280.28;5052912;28;20462;-62
2021/10/14 08:20:15;;;;;;;25.80;9.90;;;;;;;10.65;54.02;99271.94;5052480;28;20033;-63
2021/10/14 08:22:40;;;;;;;25.55;9.73;;;;;;;10.59;54.47;99265.31;5052629;28;20067;-64
2021/10/14 08:25:09;;;;;;;22.75;9.43;;;;;;;10.63;54.30;99256.88;5052461;28;20024;-62
2021/10/14 08:27:34;;;;;;;25.10;9.20;;;;;;;10.66;54.20;99246.84;5052580;28;20028;-63
2021/10/14 08:30:00;;;;;;;28.90;9.88;;;;;;;10.63;54.14;99248.00;5051081;28;20029;-62
2021/10/14 08:32:26;;;;;;;22.15;9.65;;;;;;;10.74;54.45;99253.22;5050608;28;20393;-63
2021/10/14 08:34:51;;;;;;;27.45;9.30;;;;;;;10.62;53.95;99215.00;5050829;28;20036;-63
2021/10/14 08:37:21;;;;;;;24.17;9.52;;;;;;;10.97;52.88;99255.63;5051416;28;20108;-64
2021/10/14 08:39:50;;;;;;;21.13;8.73;;;;;;;11.03;52.91;99256.91;5052168;28;20056;-62
2021/10/14 08:42:16;;;;;;;19.65;9.30;;;;;;;10.91;53.19;99259.72;5034024;28;20385;-65
2021/10/14 08:44:42;;;;;;;23.60;9.35;;;;;;;10.77;53.29;99223.47;5051062;28;20039;-63
2021/10/14 08:47:11;;;;;;;19.58;8.60;;;;;;;11.17;53.10;99255.63;5052123;28;20385;-63
2021/10/14 08:49:37;;;;;;;28.20;10.63;;;;;;;11.23;52.25;99247.03;5050670;28;20397;-66
2021/10/14 08:52:03;;;;;;;29.45;9.85;;;;;;;11.34;51.96;99246.88;5050661;28;20106;-66
2021/10/14 08:54:28;;;;;;;23.50;9.68;;;;;;;11.44;52.33;99235.28;5050736;28;20032;-66
2021/10/14 08:56:53;;;;;;;27.17;9.93;;;;;;;11.64;51.13;99241.44;5049899;28;20079;-65
2021/10/14 08:59:19;;;;;;;17.75;8.95;;;;;;;11.74;50.65;99246.78;5052259;28;20079;-65
2021/10/14 09:02:18;;;;;;;21.30;9.23;;;;;;;12.00;50.38;99246.97;5051793;28;20086;-65
2021/10/14 09:04:54;;;;;;;26.13;8.98;;;;;;;12.06;50.17;99241.06;5050520;28;20071;-66
2021/10/14 09:07:21;;;;;;;20.83;9.60;;;;;;;12.09;48.88;99242.59;5051482;28;20021;-66
2021/10/14 09:09:48;;;;;;;23.95;9.82;;;;;;;11.96;48.98;99242.91;5050408;28;20060;-66
2021/10/14 09:12:16;;;;;;;29.75;10.25;;;;;;;11.82;50.12;99238.88;5050134;28;20055;-67
2021/10/14 09:14:57;;;;;;;26.10;9.60;;;;;;;11.80;50.00;99240.81;5050346;28;20088;-66
2021/10/14 09:17:41;;;;;;;25.67;9.38;;;;;;;11.78;50.28;99232.09;5050152;28;20037;-65
2021/10/14 09:20:38;;;;;;;18.58;9.35;;;;;;;11.71;50.48;99237.22;5033178;28;20029;-65
2021/10/14 09:23:21;;;;;;;28.63;9.75;;;;;;;11.55;50.59;99226.25;5033317;28;20489;-66
2021/10/14 09:25:53;;;;;;;21.27;10.13;;;;;;;11.54;50.05;99222.69;5050525;28;20029;-65
2021/10/14 09:28:25;;;;;;;30.95;10.35;;;;;;;11.46;50.84;99233.31;5049968;28;20032;-67
2021/10/14 09:30:58;;;;;;;25.00;10.27;;;;;;;11.29;51.20;99226.84;5051790;28;20033;-66
2021/10/14 09:33:30;;;;;;;22.08;9.82;;;;;;;11.36;51.83;99235.16;5051236;28;20037;-66
2021/10/14 09:35:56;;;;;;;29.48;10.45;;;;;;;11.31;51.73;99227.56;5051093;28;20036;-65
2021/10/14 09:38:33;;;;;;;20.30;9.50;;;;;;;11.33;52.05;99213.03;5050004;28;20124;-65
2021/10/14 09:41:06;;;;;;;29.80;9.73;;;;;;;11.40;52.23;99221.31;5033230;28;20476;-66
2021/10/14 09:43:33;;;;;;;22.55;10.13;;;;;;;11.31;53.14;99223.03;5049760;28;20025;-66
2021/10/14 09:45:59;;;;;;;32.97;10.00;;;;;;;11.30;52.32;99217.81;5050209;28;20377;-67
2021/10/14 09:48:24;;;;;;;20.80;9.88;;;;;;;11.25;53.00;99209.38;5033071;28;20043;-65
2021/10/14 09:50:50;;;;;;;26.38;10.82;;;;;;;11.16;53.91;99213.75;5049708;28;20024;-68
2021/10/14 09:53:21;;;;;;;26.88;10.93;;;;;;;11.08;54.68;99202.88;5033734;28;20048;-67
2021/10/14 09:55:48;;;;;;;27.17;10.68;;;;;;;11.05;54.62;99210.22;5050214;28;20025;-66
2021/10/14 09:58:15;;;;;;;26.35;10.80;;;;;;;10.96;54.83;99221.81;5049660;28;20033;-66
2021/10/14 10:00:41;;;;;;;32.67;9.88;;;;;;;10.96;54.44;99211.09;5049896;28;20029;-68
2021/10/14 10:03:09;;;;;;;27.88;10.63;;;;;;;10.83;54.74;99197.13;5051519;28;20056;-66
2021/10/14 10:05:38;;;;;;;27.83;10.32;;;;;;;10.87;55.23;99219.97;5049336;28;20039;-67
2021/10/14 10:08:08;;;;;;;29.92;10.57;;;;;;;10.86;55.69;99207.56;5050081;28;20037;-66
2021/10/14 10:10:37;;;;;;;28.40;11.23;;;;;;;10.50;55.46;99145.69;5050229;28;20439;-64
2021/10/14 10:13:03;;;;;;;21.60;10.68;;;;;;;10.81;55.93;99213.34;5049650;28;20052;-65
2021/10/14 10:15:40;;;;;;;23.75;10.50;;;;;;;10.96;55.07;99202.19;5050798;28;20119;-66
2021/10/14 10:18:44;;;;;;;25.40;10.88;;;;;;;10.87;56.29;99202.06;5052178;28;20051;-67
2021/10/14 10:21:29;;;;;;;26.83;10.05;;;;;;;10.86;55.89;99208.41;5052852;28;20461;-66
2021/10/14 10:23:56;;;;;;;24.33;10.63;;;;;;;10.62;57.64;99200.81;5035811;28;20038;-65
2021/10/14 10:26:34;;;;;;;25.77;11.55;;;;;;;10.63;58.00;99202.50;5053489;28;20037;-65
2021/10/14 10:29:11;;;;;;;23.90;11.02;;;;;;;10.57;57.31;99206.56;5045440;28;20112;-62
2021/10/14 10:31:46;;;;;;;29.15;10.15;;;;;;;10.53;58.20;99202.47;5054564;28;20052;-63
2021/10/14 10:37:48;;;;;;;28.55;11.40;;;;;;;10.28;58.94;99209.16;5052938;28;20360;-63
2021/10/14 10:40:40;;;;;;;31.73;12.18;;;;;;;10.27;58.68;99221.69;5053627;28;20072;-61
2021/10/14 10:43:11;;;;;;;29.88;10.45;;;;;;;9.94;60.62;99221.00;5053619;28;20033;-67
2021/10/14 10:46:05;;;;;;;26.27;10.60;;;;;;;9.82;60.65;99204.22;5051668;28;20037;-59
2021/10/14 10:48:35;;;;;;;30.35;11.20;;;;;;;9.65;61.67;99203.03;5053473;28;20033;-59
2021/10/14 10:51:01;;;;;;;23.30;10.88;;;;;;;9.51;62.39;99190.84;5053813;28;20448;-56
2021/10/14 10:53:45;;;;;;;25.67;11.45;;;;;;;9.71;61.92;99215.00;5052545;28;20111;-60
2021/10/14 10:56:32;;;;;;;29.27;11.70;;;;;;;9.77;61.57;99198.44;5052020;28;20029;-59
2021/10/14 10:58:58;;;;;;;36.47;11.23;;;;;;;9.58;63.48;99194.69;5053677;28;20139;-58
2021/10/14 11:01:24;;;;;;;32.75;11.48;;;;;;;9.67;62.21;99208.25;5054248;28;20365;-60
2021/10/14 11:04:03;;;;;;;28.00;10.98;;;;;;;9.83;61.52;99208.56;5052519;28;20463;-59
2021/10/14 11:06:31;;;;;;;25.17;10.05;;;;;;;9.75;60.93;99184.34;5052672;28;20516;-59
2021/10/14 11:09:06;;;;;;;29.20;11.00;;;;;;;9.90;60.81;99196.38;5051939;28;20041;-58
2021/10/14 11:11:33;;;;;;;28.50;10.43;;;;;;;9.95;60.16;99200.47;5053566;28;20106;-58
2021/10/14 11:13:59;;;;;;;23.98;10.80;;;;;;;9.89;60.58;99191.16;5053366;28;20270;-62
2021/10/14 11:16:27;;;;;;;28.63;11.48;;;;;;;9.89;60.46;99192.03;5051900;28;20182;-60
2021/10/14 11:18:56;;;;;;;25.00;10.75;;;;;;;9.89;60.40;99202.72;5052422;28;20047;-62
2021/10/14 11:21:24;;;;;;;28.00;10.93;;;;;;;9.99;59.33;99200.06;5052115;28;20025;-60
2021/10/14 11:23:55;;;;;;;30.40;11.15;;;;;;;9.96;59.83;99197.66;5053183;28;20040;-59